sensor_id;sensor_type;location;lat;lon;timestamp;pressure;altitude;pressure_sealevel;temperature;humidity
32735;BME280;19112;51.076;3.706;2022-12-08T00:01:13;100442.09;;;2.08;86.33
32735;BME280;19112;51.076;3.706;2022-12-08T00:03:41;100878.88;;;4.60;86.69
32735;BME280;19112;51.076;3.706;2022-12-08T00:06:15;101208.91;;;6.48;86.79
32735;BME280;19112;51.076;3.706;2022-12-08T00:09:02;101028.72;;;5.48;86.61
32735;BME280;19112;51.076;3.706;2022-12-08T00:12:10;101201.25;;;6.51;86.84
32735;BME280;19112;51.076;3.706;2022-12-08T00:14:40;101157.19;;;6.24;86.36
32735;BME280;19112;51.076;3.706;2022-12-08T00:17:07;101063.88;;;5.71;86.84
32735;BME280;19112;51.076;3.706;2022-12-08T00:19:35;100877.72;;;4.70;86.88
32735;BME280;19112;51.076;3.706;2022-12-08T00:22:01;101201.88;;;6.47;87.14
32735;BME280;19112;51.076;3.706;2022-12-08T00:24:33;100448.63;;;2.31;86.86
32735;BME280;19112;51.076;3.706;2022-12-08T00:27:00;100438.59;;;2.23;86.02
32735;BME280;19112;51.076;3.706;2022-12-08T00:29:26;100970.25;;;5.27;86.84
32735;BME280;19112;51.076;3.706;2022-12-08T00:31:52;101166.47;;;6.50;87.06
32735;BME280;19112;51.076;3.706;2022-12-08T00:34:19;100455.59;;;2.47;86.65
32735;BME280;19112;51.076;3.706;2022-12-08T00:36:45;100893.34;;;5.01;87.23
32735;BME280;19112;51.076;3.706;2022-12-08T00:39:12;101094.13;;;6.15;87.18
32735;BME280;19112;51.076;3.706;2022-12-08T00:41:39;100973.81;;;5.44;86.86
32735;BME280;19112;51.076;3.706;2022-12-08T00:44:23;101000.13;;;5.65;87.32
32735;BME280;19112;51.076;3.706;2022-12-08T00:46:49;100903.78;;;5.17;87.05
32735;BME280;19112;51.076;3.706;2022-12-08T00:49:15;100975.69;;;5.63;87.30
32735;BME280;19112;51.076;3.706;2022-12-08T00:51:42;101164.75;;;6.67;87.81
32735;BME280;19112;51.076;3.706;2022-12-08T00:54:09;100912.31;;;5.15;87.01
32735;BME280;19112;51.076;3.706;2022-12-08T00:56:34;101180.97;;;6.62;87.08
32735;BME280;19112;51.076;3.706;2022-12-08T00:59:02;101162.47;;;6.57;86.86
32735;BME280;19112;51.076;3.706;2022-12-08T01:01:28;100790.44;;;4.44;86.01
32735;BME280;19112;51.076;3.706;2022-12-08T01:03:53;101150.81;;;6.50;85.82
32735;BME280;19112;51.076;3.706;2022-12-08T01:06:19;101141.72;;;6.44;86.17
32735;BME280;19112;51.076;3.706;2022-12-08T01:08:45;100939.94;;;5.28;86.70
32735;BME280;19112;51.076;3.706;2022-12-08T01:11:18;100206.41;;;1.03;86.89
32735;BME280;19112;51.076;3.706;2022-12-08T01:13:44;101076.38;;;6.08;87.43
32735;BME280;19112;51.076;3.706;2022-12-08T01:16:25;100965.34;;;5.48;88.15
32735;BME280;19112;51.076;3.706;2022-12-08T01:18:52;101102.22;;;6.36;88.72
32735;BME280;19112;51.076;3.706;2022-12-08T01:21:18;100995.59;;;5.77;88.72
32735;BME280;19112;51.076;3.706;2022-12-08T01:23:44;101080.75;;;6.09;89.95
32735;BME280;19112;51.076;3.706;2022-12-08T01:26:13;101076.19;;;6.05;90.27
32735;BME280;19112;51.076;3.706;2022-12-08T01:28:40;101061.75;;;5.95;90.64
32735;BME280;19112;51.076;3.706;2022-12-08T01:31:20;101051.31;;;5.95;90.59
32735;BME280;19112;51.076;3.706;2022-12-08T01:33:47;101110.44;;;6.44;89.40
32735;BME280;19112;51.076;3.706;2022-12-08T01:36:26;101056.34;;;6.23;89.51
32735;BME280;19112;51.076;3.706;2022-12-08T01:38:55;101061.97;;;6.31;88.85
32735;BME280;19112;51.076;3.706;2022-12-08T01:41:24;100996.31;;;5.74;90.26
32735;BME280;19112;51.076;3.706;2022-12-08T01:43:57;101159.09;;;6.43;90.13
32735;BME280;19112;51.076;3.706;2022-12-08T01:46:24;100825.25;;;4.62;90.56
32735;BME280;19112;51.076;3.706;2022-12-08T01:48:55;100894.13;;;5.00;89.83
32735;BME280;19112;51.076;3.706;2022-12-08T01:51:24;101108.88;;;6.31;89.36
32735;BME280;19112;51.076;3.706;2022-12-08T01:53:50;101046.81;;;6.08;88.25
32735;BME280;19112;51.076;3.706;2022-12-08T01:56:27;100921.31;;;5.52;88.01
32735;BME280;19112;51.076;3.706;2022-12-08T01:58:54;101143.00;;;6.67;88.21
32735;BME280;19112;51.076;3.706;2022-12-08T02:01:21;101043.84;;;6.18;87.61
32735;BME280;19112;51.076;3.706;2022-12-08T02:03:58;100810.72;;;4.81;87.52
32735;BME280;19112;51.076;3.706;2022-12-08T02:06:27;101127.09;;;6.62;87.01
32735;BME280;19112;51.076;3.706;2022-12-08T02:08:55;101127.97;;;6.63;86.31
32735;BME280;19112;51.076;3.706;2022-12-08T02:11:22;101123.25;;;6.55;86.02
32735;BME280;19112;51.076;3.706;2022-12-08T02:13:49;101060.78;;;5.78;86.03
32735;BME280;19112;51.076;3.706;2022-12-08T02:16:43;101083.06;;;6.19;87.16
32735;BME280;19112;51.076;3.706;2022-12-08T02:22:59;101012.59;;;5.70;87.28
32735;BME280;19112;51.076;3.706;2022-12-08T02:37:12;101102.75;;;6.14;87.68
32735;BME280;19112;51.076;3.706;2022-12-08T02:39:56;101101.53;;;6.08;87.58
32735;BME280;19112;51.076;3.706;2022-12-08T02:42:35;101057.88;;;5.89;88.09
32735;BME280;19112;51.076;3.706;2022-12-08T02:45:40;101095.09;;;6.17;88.82
32735;BME280;19112;51.076;3.706;2022-12-08T02:48:09;101065.50;;;5.86;88.24
32735;BME280;19112;51.076;3.706;2022-12-08T02:50:35;101079.75;;;6.07;89.00
32735;BME280;19112;51.076;3.706;2022-12-08T02:53:01;101092.41;;;6.16;89.09
32735;BME280;19112;51.076;3.706;2022-12-08T02:56:03;101021.38;;;5.72;88.82
32735;BME280;19112;51.076;3.706;2022-12-08T02:58:53;101031.38;;;5.65;89.31
32735;BME280;19112;51.076;3.706;2022-12-08T03:07:51;101005.34;;;5.65;89.59
32735;BME280;19112;51.076;3.706;2022-12-08T03:10:28;100825.56;;;4.83;89.53
32735;BME280;19112;51.076;3.706;2022-12-08T03:13:14;100965.47;;;5.66;89.19
32735;BME280;19112;51.076;3.706;2022-12-08T03:15:45;101016.28;;;5.90;89.65
32735;BME280;19112;51.076;3.706;2022-12-08T03:18:16;100581.94;;;3.55;89.17
32735;BME280;19112;51.076;3.706;2022-12-08T03:20:45;100871.19;;;5.24;89.79
32735;BME280;19112;51.076;3.706;2022-12-08T03:23:13;101048.59;;;6.25;88.75
32735;BME280;19112;51.076;3.706;2022-12-08T03:25:53;100935.09;;;5.66;88.20
32735;BME280;19112;51.076;3.706;2022-12-08T03:28:21;100972.56;;;5.85;88.67
32735;BME280;19112;51.076;3.706;2022-12-08T03:30:48;101059.03;;;6.25;88.04
32735;BME280;19112;51.076;3.706;2022-12-08T03:33:24;101030.75;;;6.33;87.76
32735;BME280;19112;51.076;3.706;2022-12-08T03:35:52;100934.94;;;5.63;88.44
32735;BME280;19112;51.076;3.706;2022-12-08T03:38:19;100951.06;;;5.72;88.06
32735;BME280;19112;51.076;3.706;2022-12-08T03:40:45;100974.72;;;5.92;87.19
32735;BME280;19112;51.076;3.706;2022-12-08T03:43:33;100996.38;;;6.07;88.16
32735;BME280;19112;51.076;3.706;2022-12-08T03:45:59;100964.47;;;5.80;88.48
32735;BME280;19112;51.076;3.706;2022-12-08T03:48:25;100777.53;;;4.77;88.32
32735;BME280;19112;51.076;3.706;2022-12-08T03:50:50;100912.63;;;5.52;89.21
32735;BME280;19112;51.076;3.706;2022-12-08T03:53:16;100765.66;;;4.65;88.53
32735;BME280;19112;51.076;3.706;2022-12-08T03:55:42;100818.22;;;4.91;88.79
32735;BME280;19112;51.076;3.706;2022-12-08T03:58:08;100782.41;;;4.70;87.08
32735;BME280;19112;51.076;3.706;2022-12-08T04:00:33;100891.72;;;5.34;87.08
32735;BME280;19112;51.076;3.706;2022-12-08T04:02:59;101024.06;;;6.05;87.47
32735;BME280;19112;51.076;3.706;2022-12-08T04:05:25;100987.16;;;5.81;87.40
32735;BME280;19112;51.076;3.706;2022-12-08T04:07:50;101025.53;;;6.00;88.13
32735;BME280;19112;51.076;3.706;2022-12-08T04:10:16;101021.94;;;5.98;87.43
32735;BME280;19112;51.076;3.706;2022-12-08T04:12:42;101016.56;;;5.95;87.77
32735;BME280;19112;51.076;3.706;2022-12-08T04:15:09;101008.19;;;5.86;87.63
32735;BME280;19112;51.076;3.706;2022-12-08T04:17:35;101053.63;;;5.91;86.92
32735;BME280;19112;51.076;3.706;2022-12-08T04:20:00;101007.22;;;5.98;87.34
32735;BME280;19112;51.076;3.706;2022-12-08T04:22:26;101011.84;;;6.04;87.69
32735;BME280;19112;51.076;3.706;2022-12-08T04:24:52;101006.47;;;6.01;87.49
32735;BME280;19112;51.076;3.706;2022-12-08T04:27:17;100804.31;;;4.90;87.70
32735;BME280;19112;51.076;3.706;2022-12-08T04:29:43;100973.63;;;5.88;87.77
32735;BME280;19112;51.076;3.706;2022-12-08T04:32:09;100937.22;;;5.73;87.19
32735;BME280;19112;51.076;3.706;2022-12-08T04:34:35;100998.31;;;6.11;86.75
32735;BME280;19112;51.076;3.706;2022-12-08T04:37:00;100936.00;;;5.67;87.91
32735;BME280;19112;51.076;3.706;2022-12-08T04:39:26;100961.09;;;5.81;88.09
32735;BME280;19112;51.076;3.706;2022-12-08T04:41:52;100665.78;;;4.14;87.04
32735;BME280;19112;51.076;3.706;2022-12-08T04:44:18;100864.19;;;5.23;87.36
32735;BME280;19112;51.076;3.706;2022-12-08T04:46:43;100844.41;;;5.10;87.63
32735;BME280;19112;51.076;3.706;2022-12-08T04:49:09;100984.13;;;5.90;87.72
32735;BME280;19112;51.076;3.706;2022-12-08T04:51:35;100889.09;;;5.34;87.89
32735;BME280;19112;51.076;3.706;2022-12-08T04:54:00;100966.44;;;5.68;88.07
32735;BME280;19112;51.076;3.706;2022-12-08T04:56:26;100994.91;;;5.96;87.99
32735;BME280;19112;51.076;3.706;2022-12-08T04:58:52;100992.53;;;6.00;87.85
32735;BME280;19112;51.076;3.706;2022-12-08T05:01:18;100449.59;;;2.93;87.65
32735;BME280;19112;51.076;3.706;2022-12-08T05:03:43;100672.31;;;4.23;87.57
32735;BME280;19112;51.076;3.706;2022-12-08T05:06:12;100908.22;;;5.51;88.75
32735;BME280;19112;51.076;3.706;2022-12-08T05:08:38;100950.25;;;5.73;87.57
32735;BME280;19112;51.076;3.706;2022-12-08T05:11:07;100785.28;;;4.91;87.34
32735;BME280;19112;51.076;3.706;2022-12-08T05:13:33;100978.88;;;6.04;86.85
32735;BME280;19112;51.076;3.706;2022-12-08T05:16:08;100985.38;;;5.96;86.84
32735;BME280;19112;51.076;3.706;2022-12-08T05:18:35;100813.34;;;4.97;87.05
32735;BME280;19112;51.076;3.706;2022-12-08T05:21:02;100700.44;;;4.46;86.92
32735;BME280;19112;51.076;3.706;2022-12-08T05:23:28;100637.16;;;3.98;87.53
32735;BME280;19112;51.076;3.706;2022-12-08T05:25:54;100675.34;;;4.15;87.72
32735;BME280;19112;51.076;3.706;2022-12-08T05:28:20;100382.09;;;2.45;88.05
32735;BME280;19112;51.076;3.706;2022-12-08T05:30:46;100701.50;;;4.33;87.35
32735;BME280;19112;51.076;3.706;2022-12-08T05:33:11;100948.47;;;5.72;87.00
32735;BME280;19112;51.076;3.706;2022-12-08T05:35:37;100935.19;;;5.68;86.56
32735;BME280;19112;51.076;3.706;2022-12-08T05:38:04;100684.81;;;4.30;87.47
32735;BME280;19112;51.076;3.706;2022-12-08T05:40:30;100955.53;;;5.75;87.64
32735;BME280;19112;51.076;3.706;2022-12-08T05:42:55;100952.53;;;5.84;87.72
32735;BME280;19112;51.076;3.706;2022-12-08T05:45:21;100873.75;;;5.39;87.75
32735;BME280;19112;51.076;3.706;2022-12-08T05:47:47;100715.97;;;4.44;88.00
32735;BME280;19112;51.076;3.706;2022-12-08T05:50:13;100838.19;;;5.23;88.40
32735;BME280;19112;51.076;3.706;2022-12-08T05:52:38;100580.91;;;3.82;88.10
32735;BME280;19112;51.076;3.706;2022-12-08T05:55:05;100741.31;;;4.80;87.85
32735;BME280;19112;51.076;3.706;2022-12-08T05:57:30;100957.72;;;5.98;88.16
32735;BME280;19112;51.076;3.706;2022-12-08T05:59:56;100939.53;;;6.00;87.92
32735;BME280;19112;51.076;3.706;2022-12-08T06:02:24;100764.50;;;5.08;87.41
32735;BME280;19112;51.076;3.706;2022-12-08T06:04:50;100183.09;;;1.76;87.36
32735;BME280;19112;51.076;3.706;2022-12-08T06:07:16;100943.78;;;6.14;87.73
32735;BME280;19112;51.076;3.706;2022-12-08T06:09:42;100955.59;;;6.08;88.01
32735;BME280;19112;51.076;3.706;2022-12-08T06:12:08;100855.03;;;5.62;88.05
32735;BME280;19112;51.076;3.706;2022-12-08T06:14:40;100899.25;;;5.93;87.23
32735;BME280;19112;51.076;3.706;2022-12-08T06:17:06;100946.44;;;6.16;87.78
32735;BME280;19112;51.076;3.706;2022-12-08T06:19:31;100907.44;;;5.85;87.46
32735;BME280;19112;51.076;3.706;2022-12-08T06:21:57;100866.06;;;5.58;88.46
32735;BME280;19112;51.076;3.706;2022-12-08T06:24:23;100943.13;;;6.02;88.73
32735;BME280;19112;51.076;3.706;2022-12-08T06:26:49;100895.22;;;5.84;87.93
32735;BME280;19112;51.076;3.706;2022-12-08T06:29:15;100789.63;;;5.23;88.04
32735;BME280;19112;51.076;3.706;2022-12-08T06:31:40;100904.53;;;5.95;87.81
32735;BME280;19112;51.076;3.706;2022-12-08T06:34:06;100381.81;;;3.01;87.36
32735;BME280;19112;51.076;3.706;2022-12-08T06:36:32;100928.78;;;6.10;88.72
32735;BME280;19112;51.076;3.706;2022-12-08T06:38:59;100936.19;;;6.19;88.40
32735;BME280;19112;51.076;3.706;2022-12-08T06:41:25;100937.97;;;6.20;88.44
32735;BME280;19112;51.076;3.706;2022-12-08T06:43:51;100685.63;;;4.76;88.30
32735;BME280;19112;51.076;3.706;2022-12-08T06:46:18;100796.78;;;5.44;88.50
32735;BME280;19112;51.076;3.706;2022-12-08T06:48:45;100887.84;;;5.91;88.41
32735;BME280;19112;51.076;3.706;2022-12-08T06:51:14;100937.66;;;6.14;88.56
32735;BME280;19112;51.076;3.706;2022-12-08T06:53:42;100804.16;;;5.36;88.72
32735;BME280;19112;51.076;3.706;2022-12-08T06:56:09;100854.38;;;5.66;89.01
32735;BME280;19112;51.076;3.706;2022-12-08T06:58:36;100474.84;;;3.57;87.75
32735;BME280;19112;51.076;3.706;2022-12-08T07:01:08;100933.25;;;6.29;88.25
32735;BME280;19112;51.076;3.706;2022-12-08T07:03:35;100630.28;;;4.62;87.65
32735;BME280;19112;51.076;3.706;2022-12-08T07:06:01;100651.97;;;4.79;87.02
32735;BME280;19112;51.076;3.706;2022-12-08T07:08:27;100752.94;;;5.35;87.64
32735;BME280;19112;51.076;3.706;2022-12-08T07:10:52;100853.25;;;5.94;87.53
32735;BME280;19112;51.076;3.706;2022-12-08T07:13:18;100657.34;;;4.82;86.87
32735;BME280;19112;51.076;3.706;2022-12-08T07:15:44;100940.31;;;6.32;87.41
32735;BME280;19112;51.076;3.706;2022-12-08T07:18:10;100770.91;;;5.31;87.36
32735;BME280;19112;51.076;3.706;2022-12-08T07:20:35;100929.41;;;6.22;86.96
32735;BME280;19112;51.076;3.706;2022-12-08T07:23:01;100818.25;;;5.56;86.39
32735;BME280;19112;51.076;3.706;2022-12-08T07:25:27;100834.44;;;5.67;86.62
32735;BME280;19112;51.076;3.706;2022-12-08T07:27:53;100883.03;;;5.99;86.68
32735;BME280;19112;51.076;3.706;2022-12-08T07:30:19;100468.22;;;3.62;87.19
32735;BME280;19112;51.076;3.706;2022-12-08T07:32:45;100880.13;;;5.93;87.91
32735;BME280;19112;51.076;3.706;2022-12-08T07:35:11;100802.00;;;5.44;87.17
32735;BME280;19112;51.076;3.706;2022-12-08T07:37:37;100922.09;;;6.15;87.42
32735;BME280;19112;51.076;3.706;2022-12-08T07:40:05;100692.28;;;4.87;86.78
32735;BME280;19112;51.076;3.706;2022-12-08T07:42:32;100730.75;;;5.09;86.64
32735;BME280;19112;51.076;3.706;2022-12-08T07:44:58;100799.72;;;5.50;86.61
32735;BME280;19112;51.076;3.706;2022-12-08T07:47:23;100917.78;;;6.16;87.06
32735;BME280;19112;51.076;3.706;2022-12-08T07:49:49;100817.75;;;5.63;87.25
32735;BME280;19112;51.076;3.706;2022-12-08T07:52:15;100631.50;;;4.53;87.85
32735;BME280;19112;51.076;3.706;2022-12-08T07:54:41;100739.19;;;5.21;87.28
32735;BME280;19112;51.076;3.706;2022-12-08T07:57:07;100904.03;;;6.18;87.35
32735;BME280;19112;51.076;3.706;2022-12-08T07:59:34;100685.88;;;4.97;86.95
32735;BME280;19112;51.076;3.706;2022-12-08T08:02:00;100846.63;;;5.84;87.58
32735;BME280;19112;51.076;3.706;2022-12-08T08:04:26;100767.00;;;5.39;87.96
32735;BME280;19112;51.076;3.706;2022-12-08T08:06:51;100902.06;;;6.14;88.10
32735;BME280;19112;51.076;3.706;2022-12-08T08:09:17;100903.19;;;6.19;87.82
32735;BME280;19112;51.076;3.706;2022-12-08T08:11:43;100906.94;;;6.24;87.10
32735;BME280;19112;51.076;3.706;2022-12-08T08:14:09;100862.38;;;6.02;86.79
32735;BME280;19112;51.076;3.706;2022-12-08T08:16:34;100807.56;;;5.68;87.94
32735;BME280;19112;51.076;3.706;2022-12-08T08:19:00;100545.91;;;4.23;87.34
32735;BME280;19112;51.076;3.706;2022-12-08T08:21:26;100802.78;;;5.75;87.65
32735;BME280;19112;51.076;3.706;2022-12-08T08:23:52;100697.22;;;5.15;87.46
32735;BME280;19112;51.076;3.706;2022-12-08T08:26:18;100824.56;;;5.94;87.21
32735;BME280;19112;51.076;3.706;2022-12-08T08:28:43;100909.94;;;6.32;87.40
32735;BME280;19112;51.076;3.706;2022-12-08T08:31:11;100772.19;;;5.55;86.37
32735;BME280;19112;51.076;3.706;2022-12-08T08:33:36;100752.88;;;5.34;86.87
32735;BME280;19112;51.076;3.706;2022-12-08T08:36:09;100837.34;;;5.89;86.91
32735;BME280;19112;51.076;3.706;2022-12-08T08:38:35;100906.19;;;6.27;87.11
32735;BME280;19112;51.076;3.706;2022-12-08T08:41:09;100903.50;;;6.25;86.54
32735;BME280;19112;51.076;3.706;2022-12-08T08:43:35;100533.16;;;4.11;86.41
32735;BME280;19112;51.076;3.706;2022-12-08T08:46:03;100684.41;;;5.02;86.61
32735;BME280;19112;51.076;3.706;2022-12-08T08:48:30;100737.91;;;5.13;87.12
32735;BME280;19112;51.076;3.706;2022-12-08T08:50:57;100599.19;;;4.47;87.00
32735;BME280;19112;51.076;3.706;2022-12-08T08:53:23;100742.44;;;5.34;87.63
32735;BME280;19112;51.076;3.706;2022-12-08T08:55:50;100850.34;;;6.06;87.99
32735;BME280;19112;51.076;3.706;2022-12-08T08:58:17;100848.16;;;6.13;87.26
32735;BME280;19112;51.076;3.706;2022-12-08T09:00:43;100904.59;;;6.47;87.85
32735;BME280;19112;51.076;3.706;2022-12-08T09:03:09;100892.03;;;6.56;88.34
32735;BME280;19112;51.076;3.706;2022-12-08T09:05:37;100892.78;;;6.71;88.16
32735;BME280;19112;51.076;3.706;2022-12-08T09:08:05;100799.19;;;6.24;88.30
32735;BME280;19112;51.076;3.706;2022-12-08T09:10:30;100751.09;;;6.01;88.71
32735;BME280;19112;51.076;3.706;2022-12-08T09:12:56;100901.88;;;6.79;88.51
32735;BME280;19112;51.076;3.706;2022-12-08T09:15:22;100679.91;;;5.66;88.62
32735;BME280;19112;51.076;3.706;2022-12-08T09:17:48;100826.38;;;6.47;89.01
32735;BME280;19112;51.076;3.706;2022-12-08T09:20:13;100876.97;;;6.86;89.05
32735;BME280;19112;51.076;3.706;2022-12-08T09:22:39;100881.91;;;6.98;89.32
32735;BME280;19112;51.076;3.706;2022-12-08T09:25:05;100755.00;;;6.27;88.91
32735;BME280;19112;51.076;3.706;2022-12-08T09:27:31;100805.44;;;6.63;89.13
32735;BME280;19112;51.076;3.706;2022-12-08T09:29:56;100704.38;;;6.04;87.97
32735;BME280;19112;51.076;3.706;2022-12-08T09:32:22;100799.09;;;6.58;87.49
32735;BME280;19112;51.076;3.706;2022-12-08T09:34:48;100803.78;;;6.65;86.28
32735;BME280;19112;51.076;3.706;2022-12-08T09:37:14;100807.09;;;6.61;85.69
32735;BME280;19112;51.076;3.706;2022-12-08T09:39:39;100734.44;;;6.33;86.14
32735;BME280;19112;51.076;3.706;2022-12-08T09:42:06;100792.63;;;6.68;85.82
32735;BME280;19112;51.076;3.706;2022-12-08T09:45:08;100888.34;;;7.24;86.56
32735;BME280;19112;51.076;3.706;2022-12-08T09:47:41;100866.53;;;7.04;87.03
32735;BME280;19112;51.076;3.706;2022-12-08T09:50:33;100816.66;;;6.80;86.84
32735;BME280;19112;51.076;3.706;2022-12-08T09:53:44;100885.59;;;7.21;86.86
32735;BME280;19112;51.076;3.706;2022-12-08T09:56:26;100775.28;;;6.50;86.27
32735;BME280;19112;51.076;3.706;2022-12-08T10:01:47;100689.97;;;6.12;87.54
32735;BME280;19112;51.076;3.706;2022-12-08T10:04:27;100877.28;;;7.29;87.61
32735;BME280;19112;51.076;3.706;2022-12-08T10:09:49;100837.56;;;7.17;86.97
32735;BME280;19112;51.076;3.706;2022-12-08T10:18:01;100656.09;;;6.30;87.02
32735;BME280;19112;51.076;3.706;2022-12-08T10:20:37;100781.91;;;6.99;86.07
32735;BME280;19112;51.076;3.706;2022-12-08T10:23:35;100859.59;;;7.42;86.05
32735;BME280;19112;51.076;3.706;2022-12-08T10:26:07;100682.69;;;6.23;85.11
32735;BME280;19112;51.076;3.706;2022-12-08T10:28:35;100789.94;;;6.66;85.21
32735;BME280;19112;51.076;3.706;2022-12-08T10:31:01;100726.25;;;6.25;84.49
32735;BME280;19112;51.076;3.706;2022-12-08T10:33:27;100571.56;;;5.34;84.31
32735;BME280;19112;51.076;3.706;2022-12-08T10:35:58;100889.28;;;6.89;84.57
32735;BME280;19112;51.076;3.706;2022-12-08T10:38:38;100802.53;;;6.57;85.77
32735;BME280;19112;51.076;3.706;2022-12-08T10:41:12;100735.41;;;6.17;85.38
32735;BME280;19112;51.076;3.706;2022-12-08T10:43:59;100835.59;;;6.76;85.43
32735;BME280;19112;51.076;3.706;2022-12-08T10:46:26;100763.06;;;6.14;84.93
32735;BME280;19112;51.076;3.706;2022-12-08T10:49:10;100688.72;;;5.86;85.28
32735;BME280;19112;51.076;3.706;2022-12-08T10:51:40;100808.88;;;6.62;85.66
32735;BME280;19112;51.076;3.706;2022-12-08T10:54:32;100634.56;;;5.63;84.84
32735;BME280;19112;51.076;3.706;2022-12-08T10:56:59;100830.75;;;6.83;85.43
32735;BME280;19112;51.076;3.706;2022-12-08T10:59:24;100788.22;;;6.67;85.32
32735;BME280;19112;51.076;3.706;2022-12-08T11:01:54;100403.06;;;4.41;85.47
32735;BME280;19112;51.076;3.706;2022-12-08T11:04:38;100489.16;;;4.99;85.62
32735;BME280;19112;51.076;3.706;2022-12-08T11:07:04;100829.09;;;7.03;86.77
32735;BME280;19112;51.076;3.706;2022-12-08T11:12:15;100817.06;;;7.07;87.62
32735;BME280;19112;51.076;3.706;2022-12-08T11:17:26;100554.84;;;5.65;86.88
32735;BME280;19112;51.076;3.706;2022-12-08T11:20:02;100622.13;;;5.91;84.30
32735;BME280;19112;51.076;3.706;2022-12-08T11:27:49;100808.78;;;7.16;86.56
32735;BME280;19112;51.076;3.706;2022-12-08T11:30:18;100799.00;;;7.12;85.47
32735;BME280;19112;51.076;3.706;2022-12-08T11:32:47;100583.41;;;5.99;87.05
32735;BME280;19112;51.076;3.706;2022-12-08T11:35:36;100667.53;;;6.51;87.16
32735;BME280;19112;51.076;3.706;2022-12-08T11:38:14;100802.88;;;7.39;87.48
32735;BME280;19112;51.076;3.706;2022-12-08T11:40:42;100740.63;;;7.29;86.85
32735;BME280;19112;51.076;3.706;2022-12-08T11:43:34;100780.47;;;7.64;87.07
32735;BME280;19112;51.076;3.706;2022-12-08T11:46:19;100463.09;;;5.90;85.65
32735;BME280;19112;51.076;3.706;2022-12-08T11:48:59;100515.81;;;6.41;86.85
32735;BME280;19112;51.076;3.706;2022-12-08T11:51:53;100653.09;;;7.18;86.11
32735;BME280;19112;51.076;3.706;2022-12-08T11:54:25;100785.31;;;7.95;86.59
32735;BME280;19112;51.076;3.706;2022-12-08T11:56:57;100603.59;;;7.19;88.20
32735;BME280;19112;51.076;3.706;2022-12-08T11:59:43;100627.97;;;7.61;89.07
32735;BME280;19112;51.076;3.706;2022-12-08T12:02:24;100701.22;;;7.84;83.35
32735;BME280;19112;51.076;3.706;2022-12-08T12:10:59;100764.63;;;8.63;83.81
32735;BME280;19112;51.076;3.706;2022-12-08T12:17:04;100774.47;;;8.48;82.98
32735;BME280;19112;51.076;3.706;2022-12-08T12:19:36;100768.22;;;8.45;83.12
32735;BME280;19112;51.076;3.706;2022-12-08T12:22:14;100688.88;;;8.02;83.01
32735;BME280;19112;51.076;3.706;2022-12-08T12:24:44;100654.94;;;7.60;82.07
32735;BME280;19112;51.076;3.706;2022-12-08T12:30:01;100628.25;;;7.47;83.75
32735;BME280;19112;51.076;3.706;2022-12-08T12:32:46;100729.81;;;8.02;82.99
32735;BME280;19112;51.076;3.706;2022-12-08T12:35:42;100724.16;;;7.91;82.92
32735;BME280;19112;51.076;3.706;2022-12-08T12:38:38;100781.91;;;7.97;82.44
32735;BME280;19112;51.076;3.706;2022-12-08T12:42:00;100718.31;;;6.60;81.58
32735;BME280;19112;51.076;3.706;2022-12-08T12:46:59;100800.97;;;6.25;87.82
32735;BME280;19112;51.076;3.706;2022-12-08T12:57:24;100544.97;;;4.71;89.42
32735;BME280;19112;51.076;3.706;2022-12-08T13:02:44;100791.34;;;6.42;90.42
32735;BME280;19112;51.076;3.706;2022-12-08T13:08:21;100639.22;;;5.34;91.26
32735;BME280;19112;51.076;3.706;2022-12-08T13:11:04;100356.13;;;3.70;91.51
32735;BME280;19112;51.076;3.706;2022-12-08T13:13:34;100531.09;;;4.71;91.34
32735;BME280;19112;51.076;3.706;2022-12-08T13:18:34;100747.13;;;6.25;92.53
32735;BME280;19112;51.076;3.706;2022-12-08T13:21:20;100788.91;;;6.45;91.96
32735;BME280;19112;51.076;3.706;2022-12-08T13:26:49;100811.72;;;5.97;90.61
32735;BME280;19112;51.076;3.706;2022-12-08T13:29:23;100625.25;;;4.82;91.84
32735;BME280;19112;51.076;3.706;2022-12-08T13:53:28;100699.13;;;6.22;90.71
32735;BME280;19112;51.076;3.706;2022-12-08T13:56:00;100693.31;;;6.27;91.29
32735;BME280;19112;51.076;3.706;2022-12-08T13:58:33;100600.94;;;5.85;91.35
32735;BME280;19112;51.076;3.706;2022-12-08T14:01:06;100456.91;;;5.13;91.19
32735;BME280;19112;51.076;3.706;2022-12-08T14:03:45;100734.28;;;6.85;91.55
32735;BME280;19112;51.076;3.706;2022-12-08T14:06:18;100668.41;;;6.52;91.42
32735;BME280;19112;51.076;3.706;2022-12-08T14:08:54;100669.59;;;6.59;90.98
32735;BME280;19112;51.076;3.706;2022-12-08T14:11:27;100568.31;;;6.11;90.75
32735;BME280;19112;51.076;3.706;2022-12-08T14:14:13;100738.91;;;7.10;91.00
32735;BME280;19112;51.076;3.706;2022-12-08T14:16:43;100724.28;;;6.94;90.45
32735;BME280;19112;51.076;3.706;2022-12-08T14:19:18;100511.94;;;5.94;90.94
32735;BME280;19112;51.076;3.706;2022-12-08T14:24:28;100738.00;;;7.29;90.10
32735;BME280;19112;51.076;3.706;2022-12-08T14:26:59;100548.75;;;6.19;89.78
32735;BME280;19112;51.076;3.706;2022-12-08T14:29:50;100573.69;;;6.34;89.74
32735;BME280;19112;51.076;3.706;2022-12-08T14:35:16;100665.84;;;6.71;88.59
32735;BME280;19112;51.076;3.706;2022-12-08T14:37:50;100688.88;;;6.81;88.22
32735;BME280;19112;51.076;3.706;2022-12-08T14:42:53;100700.44;;;6.67;88.65
32735;BME280;19112;51.076;3.706;2022-12-08T14:45:19;100487.81;;;5.43;88.08
32735;BME280;19112;51.076;3.706;2022-12-08T14:47:45;100723.06;;;6.68;88.45
32735;BME280;19112;51.076;3.706;2022-12-08T14:50:37;100670.09;;;6.32;87.21
32735;BME280;19112;51.076;3.706;2022-12-08T14:53:15;100733.91;;;6.58;87.79
32735;BME280;19112;51.076;3.706;2022-12-08T14:55:43;100663.56;;;6.04;87.62
32735;BME280;19112;51.076;3.706;2022-12-08T14:58:27;100579.38;;;5.52;87.66
32735;BME280;19112;51.076;3.706;2022-12-08T15:00:59;100711.59;;;6.10;87.53
32735;BME280;19112;51.076;3.706;2022-12-08T15:03:27;100424.06;;;4.45;86.96
32735;BME280;19112;51.076;3.706;2022-12-08T15:05:57;100636.00;;;5.56;87.61